Palmer, KS

4:11 AM CDT on May 29, 2015 (GMT -0500)
Rural Clifton | | Change Station
CLOSE
Current Station
Personal Weather Station
Location: Clifton, KS
Elevation: 1293 ft
Nearby Weather Stations

Elev 1293 ft 39.59 °N, 97.27 °W | Updated 14 minutes ago

Partly Cloudy
Partly Cloudy
60.6 °F
Feels Like 60.6 °F
N
3.8
Wind Variable Wind from NW

Today
High -- | Low -- °F
--% Chance of Precip.
Yesterday
High -- | Low -- °F
Precip. -- in
6:04 AM 8:47 PM
Waxing Gibbous, 82% visible
Pressure 29.88 in
Visibility 10.0 miles
Clouds Scattered Clouds 6000 ft
Mostly Cloudy 8000 ft
Dew Point 59 °F
Humidity 95%
Rainfall 0.00 in
Snow Depth Not available.
UV 0 out of 12
Pollen 7.60 out of 12
Air Quality Not available.
Flu Activity No Activity
METAR KCNK 290855Z AUTO 17005KT 10SM SCT060 BKN080 15/14 A2991 RMK AO2 SLP118 T01500144 50003

More Conditions Fewer Conditions

Pressure 29.88 in
Visibility 10.0 miles
Clouds Scattered Clouds 6000 ft
Mostly Cloudy 8000 ft
Dew Point 59 °F
Humidity 95%
Rainfall 0.00 in
Snow Depth Not available.
UV 0 out of 12
Pollen 7.60 out of 12
Air Quality Not available.
Flu Activity No Activity
METAR KCNK 290855Z AUTO 17005KT 10SM SCT060 BKN080 15/14 A2991 RMK AO2 SLP118 T01500144 50003

More Conditions Fewer Conditions

10-Day Weather Forecast

Almanac

Astronomy

May. 29, 2015 Rise Set
Actual Time
Civil Twilight
Nautical Twilight
Astronomical Twilight
Moon
Length of Visible Light
Length of Day
Tomorrow will be .
, % of the Moon is Illuminated

Today's Extremes

State Highs State Lows

Community

WunderPhotos

Upload Photos

1,825,221 photos uploaded!

WunderBlogs® & News

Nearby

Air Quality

  Air Quality AQ Index Pollutant
Not available.

Snow Depth

Station Depth Elevation

Earthquake Activity

City Distance Mag. Time & Date
Minimum magnitude displayed is 2.5.

Coastal Water Temperatures

Place Temperature

Stations

Nearby Weather Stations

Station Location Temp. Windchill Dew Point Humidity Wind Precip. Elev Updated Type